Flight Track Log - Related Links

Times and Time Zones

All times are in EDT time to prevent confusion due to time zone crossing. See the KAP46 flight status page for this flight to view local times or setup timezone preferences in your user account.


Time Position Orientation Groundspeed Altitude Reporting Facility
EDT Latitude Longitude Course Direction KTS MPH feet Rate Location/Type
Fri 07:31:37 AM 44.6058 -74.6997 160° South 145 167 7,000  Level Boston Center
Fri 07:32:39 AM 44.5586 -74.6717 157° South 134 154 7,000 -50 Level Boston Center
Fri 07:33:37 AM 44.5108 -74.6556 166° South 162 186 6,900 -51 Descending Boston Center
Fri 07:34:36 AM 44.4633 -74.6361 164° South 174 200 6,900  Level Boston Center
Fri 07:35:37 AM 44.4158 -74.6083 157° South 179 206 6,900  Level Boston Center
Fri 07:36:00 AM 44.7898 -74.7727 160° South  Level Estimated
Fri 07:36:39 AM 44.3706 -74.5775 154° Southeast 179 206 6,900  Level Boston Center
Fri 07:37:37 AM 44.3275 -74.5528 158° South 184 212 6,900  Level Boston Center
Fri 07:38:37 AM 44.2819 -74.5250 156° South 184 212 6,900  Level Boston Center
Fri 07:39:38 AM 44.2344 -74.5031 162° South 184 212 6,900  Level Boston Center
Fri 07:40:39 AM 44.1847 -74.4897 169° South 184 212 6,900  Level Boston Center
Fri 07:41:37 AM 44.1369 -74.4794 171° South 184 212 6,900  Level Boston Center
Fri 07:42:37 AM 44.0894 -74.4547 160° South 178 205 6,900 50 Level Boston Center
Fri 07:43:38 AM 44.0483 -74.4303 157° South 172 198 7,000 50 Climbing Boston Center
Fri 07:44:38 AM 44.0050 -74.4058 158° South 166 191 7,000 -50 Level Boston Center
Fri 07:45:38 AM 43.9614 -74.3842 160° South 166 191 6,900 -50 Descending Boston Center
Fri 07:46:37 AM 43.9161 -74.3625 161° South 166 191 6,900  Level Boston Center
Fri 07:47:37 AM 43.8706 -74.3408 161° South 166 191 6,900  Level Boston Center
Fri 07:48:38 AM 43.8272 -74.3164 158° South 166 191 6,900 50 Level Boston Center
Fri 07:49:36 AM 43.7817 -74.2978 164° South 166 191 7,000 50 Climbing Boston Center
Fri 07:50:37 AM 43.7361 -74.2819 166° South 166 191 7,000 -50 Level Boston Center
Fri 07:51:37 AM 43.6906 -74.2547 157° South 171 197 6,900 -49 Descending Boston Center
Fri 07:52:39 AM 43.6453 -74.2306 159° South 171 197 6,900 50 Level Boston Center
Fri 07:53:37 AM 43.6017 -74.2061 158° South 171 197 7,000 51 Climbing Boston Center
Fri 07:54:37 AM 43.5542 -74.1906 167° South 171 197 7,000  Level Boston Center
Fri 07:55:38 AM 43.5147 -74.1694 159° South 171 197 7,000  Level Boston Center
Fri 07:56:35 AM 43.4650 -74.1478 162° South 173 199 7,000  Level Boston Center
Fri 07:56:38 AM 43.4692 -74.1481 357° North 171 197 7,000  Level Boston Center
Fri 07:57:29 AM 43.4300 -74.1269 159° South 171 197 7,000  Level Boston Center
Fri 07:57:39 AM 43.4258 -74.1211 135° Southeast 166 191 7,000  Level Boston Center
Fri 07:58:37 AM 43.3783 -74.0911 155° Southeast 171 197 7,000 51 Level Boston Center
Fri 07:59:37 AM 43.3369 -74.0728 162° South 169 194 7,100  Climbing Boston Center
Fri 08:00:37 AM 43.2892 -74.0575 167° South 172 198 7,000 -198 Descending Boston Center
Fri 08:01:38 AM 43.2417 -74.0275 155° Southeast 166 191 6,700 -313 Descending Boston Center
Fri 08:02:32 AM 43.2044 -74.0039 155° Southeast 181 208 6,400 -300 Descending Boston Center
Fri 08:02:38 AM 43.1964 -73.9981 152° Southeast 172 198 6,400 -387 Level Boston Center
Fri 08:03:34 AM 43.1528 -73.9769 161° South 184 212 6,000 -407 Descending Boston Center
Fri 08:03:37 AM 43.1486 -73.9739 152° Southeast 182 209 6,000 -571 Level Boston Center
Fri 08:04:37 AM 43.0989 -73.9586 167° South 182 209 5,400 -589 Descending Boston Center
Fri 08:05:29 AM 43.0572 -73.9517 173° South 186 214 4,900 -492 Descending Boston Center
Fri 08:05:38 AM 43.0469 -73.9517 180° South 187 215 4,900 -554 Level Boston Center
Fri 08:06:34 AM 42.9989 -73.9475 176° South 184 212 4,300 -610 Descending Boston Center
Fri 08:06:37 AM 42.9969 -73.9447 134° Southeast 187 215 4,300 -400 Level Boston Center
Fri 08:07:34 AM 42.9469 -73.9464 181° South 183 211 3,900 -400 Descending Boston Center
Fri 08:07:37 AM 42.9450 -73.9406 114° Southeast 181 208 3,900 -526 Level Boston Center
Fri 08:08:31 AM 42.9033 -73.9394 179° South 181 208 3,400 -492 Descending Boston Center
Fri 08:08:38 AM 42.8969 -73.9364 161° South 181 208 3,400 -176 Level Boston Center
Fri 08:09:39 AM 42.8492 -73.9325 177° South 181 208 3,200 -360 Descending Boston Center
Fri 08:10:18 AM 42.8136 -73.9289 176° South 179 206 2,800 -540 Descending Boston Center
Fri 08:11:19 AM 42.7619 -73.9133 168° South 178 205 2,300 -393 Descending Boston Center
Fri 08:12:20 AM 42.7206 -73.8900 158° South 163 188 2,000 -446 Descending Boston Center
Fri 08:13:20 AM 42.7000 -73.8497 125° Southeast 112 129 1,400 -645 Descending Boston Center
Fri 08:14:21 AM 42.7111 -73.8133 67° East 107 123 700 -689 Descending Boston Center

Login

Don't have an account? Register now (free) for customized features, flight alerts, and more!